XRWT weather

CLOSED Troitskoye Air Base
Troitskoye, Republic of Kalmykia, Russia

Public forecast

Using degrees Celsius for public forecast. Weather courtesy of forecast.io.

METAR (pilot weather report)

Closest report is Elista Airport, 7.0 nm (12.9 km) SE. Retrieved 2019/08/23 12:30 UTC (0 seconds ago):

URWI 231230Z 09008MPS CAVOK 37/03 Q1013 R09/010065 TEMPO 06009G15MPS

TAF (pilot weather forecast)

Closest forecast is Elista Airport, 7.0 nm (12.9 km) SE. Retrieved 2019/08/23 09:12 UTC (3 hours ago):

TAF TAF URWI 230800Z 2309/2321 07008G14MPS 9999 SCT030